Time;durP1;ratioP1;P1;durP2;ratioP2;P2;SDS_P1;SDS_P2;PMS_P1;PMS_P2;Temp;Humidity;BMP_temperature;BMP_pressure;BME280_temperature;BME280_humidity;BME280_pressure;Samples;Min_cycle;Max_cycle;Signal;HPM_P1;HPM_P2
2021/07/09 00:02:19;;;;;;;;;;;17.40;99.90;;;;;;5069653;28;19915;-61
2021/07/09 00:05:09;;;;;;;;;;;17.30;99.90;;;;;;5052291;28;19933;-63
2021/07/09 00:07:57;;;;;;;;;;;17.30;99.90;;;;;;5059693;28;19932;-61
2021/07/09 00:10:46;;;;;;;;;;;17.30;99.90;;;;;;5049587;28;19932;-60
2021/07/09 00:13:35;;;;;;;;;;;17.40;99.90;;;;;;5055220;28;20004;-61
2021/07/09 00:16:23;;;;;;;;;;;17.50;99.90;;;;;;5050419;28;19929;-61
2021/07/09 00:19:13;;;;;;;;;;;17.50;99.90;;;;;;5055280;28;20014;-61
2021/07/09 00:22:03;;;;;;;;;;;17.50;99.90;;;;;;5055084;28;19925;-61
2021/07/09 00:24:52;;;;;;;;;;;17.40;99.90;;;;;;5052142;28;20368;-60
2021/07/09 00:27:41;;;;;;;;;;;17.50;99.90;;;;;;5054092;28;19980;-61
2021/07/09 00:30:30;;;;;;;;;;;17.50;99.90;;;;;;5051254;28;20284;-61
2021/07/09 00:33:18;;;;;;;;;;;17.50;99.90;;;;;;5050877;28;20304;-61
2021/07/09 00:36:08;;;;;;;;;;;17.40;99.90;;;;;;5052556;28;19933;-61
2021/07/09 00:38:57;;;;;;;;;;;17.40;99.90;;;;;;5055070;28;19932;-61
2021/07/09 00:41:46;;;;;;;;;;;17.40;99.90;;;;;;5053678;28;20027;-61
2021/07/09 00:44:35;;;;;;;;;;;17.40;99.90;;;;;;5055032;28;19925;-61
2021/07/09 00:47:23;;;;;;;;;;;17.40;99.90;;;;;;5045498;28;19924;-62
2021/07/09 00:50:12;;;;;;;;;;;17.40;99.90;;;;;;5056329;28;20008;-61
2021/07/09 00:53:02;;;;;;;;;;;17.40;99.90;;;;;;5051799;28;20019;-61
2021/07/09 00:55:52;;;;;;;;;;;17.50;99.90;;;;;;5052306;28;19936;-61
2021/07/09 00:58:40;;;;;;;;;;;17.40;99.90;;;;;;5055710;28;19924;-60
2021/07/09 01:01:29;;;;;;;;;;;17.40;99.90;;;;;;5047513;28;19932;-61
2021/07/09 01:04:18;;;;;;;;;;;17.30;99.90;;;;;;5052181;28;20007;-61
2021/07/09 01:07:07;;;;;;;;;;;17.10;99.90;;;;;;5057531;28;20372;-60
2021/07/09 01:09:57;;;;;;;;;;;17.20;99.90;;;;;;5052552;28;20015;-60
2021/07/09 01:12:46;;;;;;;;;;;17.10;99.90;;;;;;5036805;28;19929;-61
2021/07/09 01:15:35;;;;;;;;;;;17.10;99.90;;;;;;5044583;28;20388;-61
2021/07/09 01:18:23;;;;;;;;;;;17.10;99.90;;;;;;5054057;28;19925;-63
2021/07/09 01:21:14;;;;;;;;;;;17.10;99.90;;;;;;5052063;28;19963;-61
2021/07/09 01:24:05;;;;;;;;;;;17.00;99.90;;;;;;5054328;28;20030;-61
2021/07/09 01:26:53;;;;;;;;;;;17.00;99.90;;;;;;5049698;28;20344;-61
2021/07/09 01:29:42;;;;;;;;;;;17.00;99.90;;;;;;5050542;28;19925;-61
2021/07/09 01:32:30;;;;;;;;;;;17.00;99.90;;;;;;5034164;28;19929;-61
2021/07/09 01:35:19;;;;;;;;;;;17.10;99.90;;;;;;5052914;28;20015;-61
2021/07/09 01:38:09;;;;;;;;;;;17.00;99.90;;;;;;5053611;28;19929;-61
2021/07/09 01:40:59;;;;;;;;;;;17.00;99.90;;;;;;5054021;28;20045;-61
2021/07/09 01:43:48;;;;;;;;;;;17.00;99.90;;;;;;5055725;28;19925;-60
2021/07/09 01:46:37;;;;;;;;;;;17.00;99.90;;;;;;5046520;28;19924;-61
2021/07/09 01:49:26;;;;;;;;;;;17.00;99.90;;;;;;5047913;28;19936;-61
2021/07/09 01:52:15;;;;;;;;;;;17.00;99.90;;;;;;5059081;28;19986;-61
2021/07/09 01:55:05;;;;;;;;;;;16.90;99.90;;;;;;5058849;28;19973;-61
2021/07/09 01:57:55;;;;;;;;;;;16.90;99.90;;;;;;5057767;28;19924;-60
2021/07/09 02:00:43;;;;;;;;;;;16.80;99.90;;;;;;5052097;28;19924;-60
2021/07/09 02:03:32;;;;;;;;;;;16.80;99.90;;;;;;5056540;28;20276;-60
2021/07/09 02:06:21;;;;;;;;;;;16.80;99.90;;;;;;5066507;28;20360;-60
2021/07/09 02:09:15;;;;;;;;;;;16.80;99.90;;;;;;5065800;28;19948;-61
2021/07/09 02:12:06;;;;;;;;;;;16.80;99.90;;;;;;5073288;28;19925;-61
2021/07/09 02:14:57;;;;;;;;;;;16.80;99.90;;;;;;5058342;28;20440;-61
2021/07/09 02:17:45;;;;;;;;;;;16.70;99.90;;;;;;5052692;28;20042;-61
2021/07/09 02:20:34;;;;;;;;;;;16.70;99.90;;;;;;5058771;28;19924;-60
2021/07/09 02:23:23;;;;;;;;;;;16.70;99.90;;;;;;5055048;28;20280;-60
2021/07/09 02:26:12;;;;;;;;;;;16.70;99.90;;;;;;5055959;28;19932;-61
2021/07/09 02:29:00;;;;;;;;;;;16.70;99.90;;;;;;5053277;28;19928;-61
2021/07/09 02:31:50;;;;;;;;;;;16.60;99.90;;;;;;5044503;28;19928;-60
2021/07/09 02:34:39;;;;;;;;;;;16.60;99.90;;;;;;5056416;28;19925;-61
2021/07/09 02:37:28;;;;;;;;;;;16.60;99.90;;;;;;5056756;28;19924;-61
2021/07/09 02:40:18;;;;;;;;;;;16.60;99.90;;;;;;5053389;28;19931;-61
2021/07/09 02:43:10;;;;;;;;;;;16.60;99.90;;;;;;5049689;28;20636;-61
2021/07/09 02:46:00;;;;;;;;;;;16.60;99.90;;;;;;5045671;28;20009;-60
2021/07/09 02:48:54;;;;;;;;;;;16.60;99.90;;;;;;5028397;28;19925;-60
2021/07/09 02:51:44;;;;;;;;;;;16.50;99.90;;;;;;5020181;28;19956;-61
2021/07/09 02:54:32;;;;;;;;;;;16.50;99.90;;;;;;5029706;28;19925;-61
2021/07/09 02:57:26;;;;;;;;;;;16.60;99.90;;;;;;5037084;28;19932;-60
2021/07/09 03:00:16;;;;;;;;;;;16.50;99.90;;;;;;5021581;28;19931;-60
2021/07/09 03:03:05;;;;;;;;;;;16.40;99.90;;;;;;5030491;28;19925;-61
2021/07/09 03:05:55;;;;;;;;;;;16.40;99.90;;;;;;5031405;28;20370;-61
2021/07/09 03:08:44;;;;;;;;;;;16.40;99.90;;;;;;5033087;28;19933;-60
2021/07/09 03:11:35;;;;;;;;;;;16.40;99.90;;;;;;5029738;28;19985;-60
2021/07/09 03:14:24;;;;;;;;;;;16.40;99.90;;;;;;5032966;28;19925;-61
2021/07/09 03:17:13;;;;;;;;;;;16.40;99.90;;;;;;5027759;28;19936;-61
2021/07/09 03:20:02;;;;;;;;;;;16.40;99.90;;;;;;5030828;28;19931;-61
2021/07/09 03:22:54;;;;;;;;;;;16.40;99.90;;;;;;5029901;28;19932;-61
2021/07/09 03:25:43;;;;;;;;;;;16.40;99.90;;;;;;5030938;28;19975;-60
2021/07/09 03:28:32;;;;;;;;;;;16.40;99.90;;;;;;5032831;28;19925;-61
2021/07/09 03:31:22;;;;;;;;;;;16.40;99.90;;;;;;5010746;28;20308;-60
2021/07/09 03:34:11;;;;;;;;;;;16.40;99.90;;;;;;5031174;28;20377;-60
2021/07/09 03:37:00;;;;;;;;;;;16.40;99.90;;;;;;5030670;28;20465;-58
2021/07/09 03:39:50;;;;;;;;;;;16.40;99.90;;;;;;5032684;28;20021;-59
2021/07/09 03:42:38;;;;;;;;;;;16.50;99.90;;;;;;5030961;28;20381;-59
2021/07/09 03:45:27;;;;;;;;;;;16.50;99.90;;;;;;5025348;28;20012;-59
2021/07/09 03:48:16;;;;;;;;;;;16.40;99.90;;;;;;5051292;28;19975;-59
2021/07/09 03:51:04;;;;;;;;;;;16.40;99.90;;;;;;5052393;28;19936;-59
2021/07/09 03:53:55;;;;;;;;;;;16.40;99.90;;;;;;5051239;28;19943;-59
2021/07/09 03:57:10;;;;;;;;;;;16.50;99.90;;;;;;5054336;28;19929;-59
2021/07/09 04:00:07;;;;;;;;;;;16.50;99.90;;;;;;5054712;28;19925;-59
2021/07/09 04:03:00;;;;;;;;;;;16.60;99.90;;;;;;5052031;28;19972;-60
2021/07/09 04:05:51;;;;;;;;;;;16.60;99.90;;;;;;5056520;28;20351;-60
2021/07/09 04:08:39;;;;;;;;;;;16.70;99.90;;;;;;5056081;28;19932;-62
2021/07/09 04:11:28;;;;;;;;;;;16.60;99.90;;;;;;5052987;28;19932;-60
2021/07/09 04:14:18;;;;;;;;;;;16.70;99.90;;;;;;5056736;28;19932;-60
2021/07/09 04:17:07;;;;;;;;;;;16.60;99.90;;;;;;5049342;28;20067;-60
2021/07/09 04:19:55;;;;;;;;;;;16.70;99.90;;;;;;5052106;28;19929;-60
2021/07/09 04:22:44;;;;;;;;;;;16.70;99.90;;;;;;5050775;28;19928;-60
2021/07/09 04:25:32;;;;;;;;;;;16.70;99.90;;;;;;5050702;28;20273;-60
2021/07/09 04:28:21;;;;;;;;;;;16.70;99.90;;;;;;5056916;28;19935;-60
2021/07/09 04:31:10;;;;;;;;;;;16.60;99.90;;;;;;5051170;28;19932;-60
2021/07/09 04:33:59;;;;;;;;;;;16.60;99.90;;;;;;5063378;28;20075;-60
2021/07/09 04:36:48;;;;;;;;;;;16.70;99.90;;;;;;5050822;28;19932;-60
2021/07/09 04:39:37;;;;;;;;;;;16.70;99.90;;;;;;5062098;28;20352;-61
2021/07/09 04:42:25;;;;;;;;;;;16.70;99.90;;;;;;5053046;28;19953;-60
2021/07/09 04:45:14;;;;;;;;;;;16.70;99.90;;;;;;5051577;28;19944;-60
2021/07/09 04:48:05;;;;;;;;;;;16.70;99.90;;;;;;5071636;28;19932;-60
2021/07/09 04:50:55;;;;;;;;;;;16.70;99.90;;;;;;5056350;28;19925;-60
2021/07/09 04:53:43;;;;;;;;;;;16.70;99.90;;;;;;5052764;28;20253;-60
2021/07/09 04:56:32;;;;;;;;;;;16.60;99.90;;;;;;5056989;28;19925;-60
2021/07/09 04:59:21;;;;;;;;;;;16.60;99.90;;;;;;5056388;28;20392;-60
2021/07/09 05:02:10;;;;;;;;;;;16.60;99.90;;;;;;5060022;28;20082;-60
2021/07/09 05:05:00;;;;;;;;;;;16.60;99.90;;;;;;5058026;28;19943;-63
2021/07/09 05:07:49;;;;;;;;;;;16.60;99.90;;;;;;5065474;28;19932;-60
2021/07/09 05:10:37;;;;;;;;;;;16.60;99.90;;;;;;5059089;28;19924;-60
2021/07/09 05:13:26;;;;;;;;;;;16.50;99.90;;;;;;5057528;28;19928;-60
2021/07/09 05:16:15;;;;;;;;;;;16.60;99.90;;;;;;5043573;28;19932;-60
2021/07/09 05:19:05;;;;;;;;;;;16.60;99.90;;;;;;5065196;28;19925;-60
2021/07/09 05:21:54;;;;;;;;;;;16.60;99.90;;;;;;5052900;28;20004;-60
2021/07/09 05:24:43;;;;;;;;;;;16.70;99.90;;;;;;5046790;28;19991;-60
2021/07/09 05:27:32;;;;;;;;;;;16.70;99.90;;;;;;5072532;28;19987;-60
2021/07/09 05:30:20;;;;;;;;;;;16.70;99.90;;;;;;5062074;28;20472;-60
2021/07/09 05:33:09;;;;;;;;;;;16.70;99.90;;;;;;5061497;28;19935;-60
2021/07/09 05:35:58;;;;;;;;;;;16.80;99.90;;;;;;5052469;28;19924;-60
2021/07/09 05:38:48;;;;;;;;;;;16.80;99.90;;;;;;5063660;28;20004;-60
2021/07/09 05:41:37;;;;;;;;;;;16.80;99.90;;;;;;5063057;28;20400;-60
2021/07/09 05:44:25;;;;;;;;;;;16.80;99.90;;;;;;5065063;28;19925;-60
2021/07/09 05:47:14;;;;;;;;;;;16.90;99.90;;;;;;5051208;28;19936;-60
2021/07/09 05:50:04;;;;;;;;;;;16.80;99.90;;;;;;5055854;28;19917;-61
2021/07/09 05:52:54;;;;;;;;;;;16.90;99.90;;;;;;5046691;28;19956;-61
2021/07/09 05:55:46;;;;;;;;;;;16.90;99.90;;;;;;5048802;28;19928;-61
2021/07/09 05:58:35;;;;;;;;;;;16.90;99.90;;;;;;5043737;28;19934;-61
2021/07/09 06:01:24;;;;;;;;;;;17.00;99.90;;;;;;5037701;28;19925;-61
2021/07/09 06:04:14;;;;;;;;;;;17.10;99.90;;;;;;5042692;28;19928;-60
2021/07/09 06:07:03;;;;;;;;;;;17.00;99.90;;;;;;5048118;28;19947;-61
2021/07/09 06:09:51;;;;;;;;;;;16.90;99.90;;;;;;5050377;28;20360;-61
2021/07/09 06:12:42;;;;;;;;;;;16.90;99.90;;;;;;5053162;28;20345;-61
2021/07/09 06:15:30;;;;;;;;;;;16.80;99.90;;;;;;5038734;28;20280;-64
2021/07/09 06:18:38;;;;;;;;;;;16.80;99.90;;;;;;5049454;28;19925;-61
2021/07/09 06:21:42;;;;;;;;;;;16.80;99.90;;;;;;5051597;28;20012;-61
2021/07/09 06:24:31;;;;;;;;;;;16.90;99.90;;;;;;5048942;28;19929;-60
2021/07/09 06:27:22;;;;;;;;;;;16.90;99.90;;;;;;5043765;28;19979;-61
2021/07/09 06:30:12;;;;;;;;;;;16.70;99.90;;;;;;5038655;28;19953;-62
2021/07/09 06:33:01;;;;;;;;;;;16.60;99.90;;;;;;5039677;28;20015;-60
2021/07/09 06:35:50;;;;;;;;;;;16.60;99.90;;;;;;5034810;28;19925;-61
2021/07/09 06:38:39;;;;;;;;;;;16.50;99.90;;;;;;5038293;28;19991;-61
2021/07/09 06:41:28;;;;;;;;;;;16.30;99.90;;;;;;5042874;28;19929;-61
2021/07/09 06:44:16;;;;;;;;;;;16.00;99.90;;;;;;5034942;28;19937;-61
2021/07/09 06:47:06;;;;;;;;;;;15.80;99.90;;;;;;5036941;28;19932;-61
2021/07/09 06:49:55;;;;;;;;;;;15.60;99.90;;;;;;5048347;28;20301;-61
2021/07/09 06:52:44;;;;;;;;;;;15.40;99.90;;;;;;5043003;28;19929;-61
2021/07/09 06:55:33;;;;;;;;;;;15.40;99.90;;;;;;5052585;28;19929;-61
2021/07/09 06:58:22;;;;;;;;;;;15.30;99.90;;;;;;5053737;28;20392;-61
2021/07/09 07:01:11;;;;;;;;;;;15.20;99.90;;;;;;5033247;28;19932;-61
2021/07/09 07:04:01;;;;;;;;;;;15.20;99.90;;;;;;5049770;28;20369;-61
2021/07/09 07:06:51;;;;;;;;;;;15.10;99.90;;;;;;5041757;28;19931;-60
2021/07/09 07:09:40;;;;;;;;;;;15.10;99.90;;;;;;5044641;28;20289;-61
2021/07/09 07:12:34;;;;;;;;;;;15.00;99.90;;;;;;5048433;28;20331;-60
2021/07/09 07:15:23;;;;;;;;;;;15.00;99.90;;;;;;5037283;28;20893;-61
2021/07/09 07:18:12;;;;;;;;;;;15.00;99.90;;;;;;5032218;28;19926;-61
2021/07/09 07:21:02;;;;;;;;;;;15.00;99.90;;;;;;5048184;28;19925;-61
2021/07/09 07:24:15;;;;;;;;;;;15.00;99.90;;;;;;5033698;28;19926;-61
2021/07/09 07:27:04;;;;;;;;;;;14.90;99.90;;;;;;5037608;28;19932;-61
2021/07/09 07:29:52;;;;;;;;;;;14.90;99.90;;;;;;5042391;28;19925;-61
2021/07/09 07:32:46;;;;;;;;;;;15.00;99.90;;;;;;5035098;28;20027;-62
2021/07/09 07:35:35;;;;;;;;;;;15.00;99.90;;;;;;5047844;28;19925;-62
2021/07/09 07:38:24;;;;;;;;;;;15.10;99.90;;;;;;5035449;28;20436;-62
2021/07/09 07:41:13;;;;;;;;;;;15.20;99.90;;;;;;5046201;28;19925;-62
2021/07/09 07:44:01;;;;;;;;;;;15.20;99.90;;;;;;5034461;28;20368;-62
2021/07/09 07:46:50;;;;;;;;;;;15.10;99.90;;;;;;5021108;28;19928;-63
2021/07/09 07:49:39;;;;;;;;;;;15.30;99.90;;;;;;5025135;28;19968;-62
2021/07/09 07:52:52;;;;;;;;;;;15.20;99.90;;;;;;5042453;28;19929;-62
2021/07/09 07:55:44;;;;;;;;;;;15.10;99.90;;;;;;5023615;28;20402;-62
2021/07/09 07:58:33;;;;;;;;;;;15.00;99.90;;;;;;5022392;28;20374;-62
2021/07/09 08:01:22;;;;;;;;;;;15.00;99.90;;;;;;5028428;28;19948;-62
2021/07/09 08:04:11;;;;;;;;;;;15.00;99.90;;;;;;5024564;28;20242;-62
2021/07/09 08:07:00;;;;;;;;;;;15.00;99.90;;;;;;5024545;28;19933;-62
2021/07/09 08:09:48;;;;;;;;;;;14.90;99.90;;;;;;5033775;28;20024;-63
2021/07/09 08:12:38;;;;;;;;;;;15.00;99.90;;;;;;5026647;28;19931;-62
2021/07/09 08:15:27;;;;;;;;;;;15.00;99.90;;;;;;5015645;28;19933;-63
2021/07/09 08:18:16;;;;;;;;;;;15.00;99.90;;;;;;5023713;28;20365;-63
2021/07/09 08:21:30;;;;;;;;;;;15.00;99.90;;;;;;5030958;28;19940;-63
2021/07/09 08:24:19;;;;;;;;;;;15.00;99.90;;;;;;5026238;28;20093;-63
2021/07/09 08:27:08;;;;;;;;;;;15.10;99.90;;;;;;5031510;28;19972;-63
2021/07/09 08:29:58;;;;;;;;;;;15.10;99.90;;;;;;5041570;28;19925;-63
2021/07/09 08:34:07;;;;;;;;;;;15.20;99.90;;;;;;5143833;27;19915;-65
2021/07/09 08:36:56;;;;;;;;;;;15.40;99.90;;;;;;5127941;28;20389;-65
2021/07/09 08:39:44;;;;;;;;;;;15.40;99.90;;;;;;5117968;28;19978;-64
2021/07/09 08:42:33;;;;;;;;;;;15.40;99.90;;;;;;5127345;28;20279;-64
2021/07/09 08:45:46;;;;;;;;;;;15.40;99.90;;;;;;5127837;27;20006;-65
2021/07/09 08:48:35;;;;;;;;;;;15.40;99.90;;;;;;5061649;28;19936;-65
2021/07/09 08:51:27;;;;;;;;;;;15.40;99.90;;;;;;5056838;28;19936;-65
2021/07/09 08:54:18;;;;;;;;;;;15.40;99.90;;;;;;5063877;28;20293;-65
2021/07/09 08:57:07;;;;;;;;;;;15.40;99.90;;;;;;5066334;28;19951;-64
2021/07/09 09:00:20;;;;;;;;;;;15.40;99.90;;;;;;5058499;28;19975;-65
2021/07/09 09:03:34;;;;;;;;;;;15.40;99.90;;;;;;5064879;28;20296;-65
2021/07/09 09:06:22;;;;;;;;;;;15.50;99.90;;;;;;5047341;28;19925;-65
2021/07/09 09:12:29;;;;;;;;;;;15.90;99.90;;;;;;5048601;28;20371;-65
2021/07/09 09:15:23;;;;;;;;;;;16.00;99.90;;;;;;5062052;28;19933;-64
2021/07/09 09:18:19;;;;;;;;;;;16.00;99.90;;;;;;5081277;28;19924;-65
2021/07/09 09:21:33;;;;;;;;;;;16.10;99.90;;;;;;5080544;28;19925;-65
2021/07/09 09:24:29;;;;;;;;;;;16.20;99.90;;;;;;5077298;28;19925;-65
2021/07/09 09:27:21;;;;;;;;;;;16.50;99.90;;;;;;5095820;28;19924;-65
2021/07/09 09:30:11;;;;;;;;;;;16.60;99.90;;;;;;5065277;28;19924;-65
2021/07/09 09:33:01;;;;;;;;;;;16.70;99.90;;;;;;5067692;28;19924;-64
2021/07/09 09:35:53;;;;;;;;;;;16.70;99.90;;;;;;5049786;28;19940;-64
2021/07/09 09:38:44;;;;;;;;;;;16.60;99.90;;;;;;5059194;28;19936;-64
2021/07/09 09:41:35;;;;;;;;;;;16.50;99.90;;;;;;5064267;28;20272;-65
2021/07/09 09:44:31;;;;;;;;;;;16.50;99.90;;;;;;5048080;28;20015;-65
2021/07/09 09:47:21;;;;;;;;;;;16.40;99.90;;;;;;5042111;28;20636;-64
2021/07/09 09:50:14;;;;;;;;;;;16.40;99.90;;;;;;5049361;28;19940;-64
2021/07/09 09:53:03;;;;;;;;;;;16.50;99.90;;;;;;5046974;28;19982;-64
2021/07/09 09:55:52;;;;;;;;;;;16.60;99.90;;;;;;5041691;28;19940;-65
2021/07/09 09:58:42;;;;;;;;;;;16.70;99.90;;;;;;5041188;28;19944;-64
2021/07/09 10:01:31;;;;;;;;;;;16.70;99.90;;;;;;5033340;28;20023;-64
2021/07/09 10:04:21;;;;;;;;;;;16.80;99.90;;;;;;5026681;28;20055;-65
2021/07/09 10:07:35;;;;;;;;;;;16.90;99.90;;;;;;5041316;28;19929;-65
2021/07/09 10:10:25;;;;;;;;;;;16.80;99.90;;;;;;5046507;28;19932;-65
2021/07/09 10:13:23;;;;;;;;;;;16.70;99.90;;;;;;5044228;28;20277;-65
2021/07/09 10:16:14;;;;;;;;;;;16.60;99.90;;;;;;5037997;28;19939;-65
2021/07/09 10:19:03;;;;;;;;;;;16.70;99.90;;;;;;5037715;28;19929;-64
2021/07/09 10:21:52;;;;;;;;;;;16.70;99.90;;;;;;5029172;28;19925;-64
2021/07/09 10:24:41;;;;;;;;;;;16.70;99.90;;;;;;5046394;28;19925;-64
2021/07/09 10:27:30;;;;;;;;;;;16.60;99.90;;;;;;5035213;28;19936;-64
2021/07/09 10:30:19;;;;;;;;;;;16.70;99.90;;;;;;5038553;28;20007;-64
2021/07/09 10:33:29;;;;;;;;;;;16.60;99.90;;;;;;5058208;28;20015;-64
2021/07/09 10:36:28;;;;;;;;;;;16.60;99.90;;;;;;5064046;28;19932;-64
2021/07/09 10:39:30;;;;;;;;;;;16.70;99.90;;;;;;5061431;28;20411;-63
2021/07/09 10:42:24;;;;;;;;;;;16.80;99.90;;;;;;5051710;28;19925;-64
2021/07/09 10:45:14;;;;;;;;;;;17.00;99.90;;;;;;5048485;28;19924;-64
2021/07/09 10:48:36;;;;;;;;;;;17.10;99.90;;;;;;5062826;28;19947;-64
2021/07/09 10:51:45;;;;;;;;;;;17.20;99.90;;;;;;5071052;28;19977;-64
2021/07/09 10:54:39;;;;;;;;;;;17.20;99.90;;;;;;5062957;28;19925;-64
2021/07/09 10:57:55;;;;;;;;;;;17.30;99.90;;;;;;5074238;28;19924;-64
2021/07/09 11:00:45;;;;;;;;;;;17.40;99.90;;;;;;5062601;28;19925;-64
2021/07/09 11:03:37;;;;;;;;;;;17.40;99.90;;;;;;5070123;28;19932;-64
2021/07/09 11:06:38;;;;;;;;;;;17.40;99.90;;;;;;5066341;28;19950;-64
2021/07/09 11:09:38;;;;;;;;;;;17.50;99.90;;;;;;5062849;28;20368;-64
2021/07/09 11:12:32;;;;;;;;;;;17.50;99.90;;;;;;5073679;28;19935;-64
2021/07/09 11:15:26;;;;;;;;;;;17.60;99.90;;;;;;5049376;28;19964;-64
2021/07/09 11:18:20;;;;;;;;;;;17.70;99.90;;;;;;5073874;28;19924;-64
2021/07/09 11:21:17;;;;;;;;;;;17.50;99.90;;;;;;5070787;28;19924;-64
2021/07/09 11:24:12;;;;;;;;;;;17.60;99.90;;;;;;5068592;28;20046;-64
2021/07/09 11:27:07;;;;;;;;;;;17.90;99.90;;;;;;5068468;28;20003;-64
2021/07/09 11:30:02;;;;;;;;;;;17.90;99.90;;;;;;5073579;28;20074;-65
2021/07/09 11:32:56;;;;;;;;;;;18.00;99.90;;;;;;5066899;28;19924;-64
2021/07/09 11:36:19;;;;;;;;;;;18.00;99.90;;;;;;5062047;28;20299;-63
2021/07/09 11:39:09;;;;;;;;;;;17.90;99.90;;;;;;5071334;28;19925;-64
2021/07/09 11:41:59;;;;;;;;;;;17.80;99.90;;;;;;5068247;28;19929;-64
2021/07/09 11:44:49;;;;;;;;;;;17.90;99.90;;;;;;5056498;28;19924;-64
2021/07/09 11:47:38;;;;;;;;;;;18.30;99.90;;;;;;5071134;28;20376;-64
2021/07/09 11:50:27;;;;;;;;;;;18.30;99.90;;;;;;5064853;28;19932;-64
2021/07/09 11:53:17;;;;;;;;;;;18.40;99.90;;;;;;5071290;28;19925;-64
2021/07/09 11:56:15;;;;;;;;;;;18.50;99.90;;;;;;5069481;28;20397;-64
2021/07/09 11:59:18;;;;;;;;;;;18.20;99.90;;;;;;5073104;28;20307;-64
2021/07/09 12:02:09;;;;;;;;;;;18.10;99.90;;;;;;5060766;28;20344;-63
2021/07/09 12:04:59;;;;;;;;;;;18.40;99.90;;;;;;5080459;28;19964;-64
2021/07/09 12:07:48;;;;;;;;;;;18.20;99.90;;;;;;5069624;28;19928;-65
2021/07/09 12:10:39;;;;;;;;;;;18.20;99.90;;;;;;5083589;28;19924;-64
2021/07/09 12:13:28;;;;;;;;;;;18.00;99.90;;;;;;5083847;28;19924;-64
2021/07/09 12:16:21;;;;;;;;;;;17.80;99.90;;;;;;5071804;28;20308;-63
2021/07/09 12:19:10;;;;;;;;;;;17.90;99.90;;;;;;5070558;28;20325;-63
2021/07/09 12:21:59;;;;;;;;;;;17.80;99.90;;;;;;5062462;28;19932;-64
2021/07/09 12:24:49;;;;;;;;;;;17.80;99.90;;;;;;5074975;28;19931;-63
2021/07/09 12:27:39;;;;;;;;;;;17.70;99.90;;;;;;5078260;28;19963;-63
2021/07/09 12:30:30;;;;;;;;;;;17.80;99.90;;;;;;5060330;28;19928;-63
2021/07/09 12:33:25;;;;;;;;;;;17.60;99.90;;;;;;5064948;28;20019;-63
2021/07/09 12:36:14;;;;;;;;;;;17.70;99.90;;;;;;5065495;28;20026;-63
2021/07/09 12:39:05;;;;;;;;;;;17.70;99.90;;;;;;5063459;28;19924;-64
2021/07/09 12:41:55;;;;;;;;;;;17.70;99.90;;;;;;5065151;28;19932;-63
2021/07/09 12:44:55;;;;;;;;;;;17.70;99.90;;;;;;5054839;28;19960;-63
2021/07/09 12:47:50;;;;;;;;;;;17.70;99.90;;;;;;5066398;28;19931;-64
2021/07/09 12:50:42;;;;;;;;;;;17.90;99.90;;;;;;5078611;28;19947;-64
2021/07/09 12:53:35;;;;;;;;;;;17.90;99.90;;;;;;5080885;28;19925;-63
2021/07/09 12:56:24;;;;;;;;;;;18.00;99.90;;;;;;5060220;28;19950;-64
2021/07/09 12:59:14;;;;;;;;;;;17.80;99.90;;;;;;5072054;28;19968;-64
2021/07/09 13:02:05;;;;;;;;;;;17.80;99.90;;;;;;5061555;28;19942;-63
2021/07/09 13:04:54;;;;;;;;;;;17.90;99.90;;;;;;5056624;28;19936;-63
2021/07/09 13:07:42;;;;;;;;;;;17.90;99.90;;;;;;5071406;28;20025;-63
2021/07/09 13:10:31;;;;;;;;;;;17.80;99.90;;;;;;5063768;28;20268;-63
2021/07/09 13:13:21;;;;;;;;;;;17.80;99.90;;;;;;5071407;28;20003;-63
2021/07/09 13:16:11;;;;;;;;;;;17.60;99.90;;;;;;5055391;28;19924;-64
2021/07/09 13:19:01;;;;;;;;;;;17.50;99.90;;;;;;5067316;28;19928;-63
2021/07/09 13:21:52;;;;;;;;;;;17.50;99.90;;;;;;5068195;28;19932;-63
2021/07/09 13:24:42;;;;;;;;;;;17.50;99.90;;;;;;5069967;28;20907;-63
2021/07/09 13:27:31;;;;;;;;;;;17.50;99.90;;;;;;5063489;28;19925;-64
2021/07/09 13:30:20;;;;;;;;;;;17.70;99.90;;;;;;5063211;28;20478;-63
2021/07/09 13:33:09;;;;;;;;;;;17.80;99.90;;;;;;5073414;28;19928;-63
2021/07/09 13:36:00;;;;;;;;;;;17.90;99.90;;;;;;5074996;28;19995;-63
2021/07/09 13:38:50;;;;;;;;;;;17.90;99.90;;;;;;5073166;28;19930;-65
2021/07/09 13:41:39;;;;;;;;;;;18.00;99.90;;;;;;5072495;28;19978;-63
2021/07/09 13:44:41;;;;;;;;;;;18.00;99.90;;;;;;5069503;28;19924;-63
2021/07/09 13:47:30;;;;;;;;;;;18.00;99.90;;;;;;5059031;28;19932;-64
2021/07/09 13:50:18;;;;;;;;;;;18.10;99.90;;;;;;5071447;28;19929;-63
2021/07/09 13:53:08;;;;;;;;;;;18.00;99.90;;;;;;5067179;28;20379;-64
2021/07/09 13:55:57;;;;;;;;;;;17.90;99.90;;;;;;5072467;28;19943;-66
2021/07/09 13:58:46;;;;;;;;;;;17.90;99.90;;;;;;5074702;28;19978;-64
2021/07/09 14:01:34;;;;;;;;;;;18.00;99.90;;;;;;5061699;28;20427;-63
2021/07/09 14:04:23;;;;;;;;;;;18.00;99.90;;;;;;5067509;28;19925;-63
2021/07/09 14:07:16;;;;;;;;;;;18.10;99.90;;;;;;5067381;28;20421;-63
2021/07/09 14:10:07;;;;;;;;;;;18.10;99.90;;;;;;5069560;28;19931;-64
2021/07/09 14:12:55;;;;;;;;;;;18.10;99.90;;;;;;5071742;28;20410;-63
2021/07/09 14:15:48;;;;;;;;;;;18.00;99.90;;;;;;5059385;28;19928;-63
2021/07/09 14:18:37;;;;;;;;;;;17.90;99.90;;;;;;5071659;28;19929;-63
2021/07/09 14:21:25;;;;;;;;;;;17.70;99.90;;;;;;5065137;28;19928;-63
2021/07/09 14:24:14;;;;;;;;;;;17.60;99.90;;;;;;5069008;28;19948;-63
2021/07/09 14:27:04;;;;;;;;;;;17.60;99.90;;;;;;5072522;28;20380;-63
2021/07/09 14:29:52;;;;;;;;;;;17.60;99.90;;;;;;5071914;28;19928;-63
2021/07/09 14:32:44;;;;;;;;;;;17.60;99.90;;;;;;5060010;28;20097;-64
2021/07/09 14:35:32;;;;;;;;;;;17.80;99.90;;;;;;5052423;28;19925;-63
2021/07/09 14:38:21;;;;;;;;;;;17.90;99.90;;;;;;5049060;28;19929;-63
2021/07/09 14:41:10;;;;;;;;;;;18.00;99.90;;;;;;5052312;28;19947;-63
2021/07/09 14:44:00;;;;;;;;;;;17.90;99.90;;;;;;5050222;28;19933;-62
2021/07/09 14:46:48;;;;;;;;;;;17.90;99.90;;;;;;5046363;28;20394;-64
2021/07/09 14:49:53;;;;;;;;;;;17.90;99.90;;;;;;5053047;28;20086;-63
2021/07/09 14:52:43;;;;;;;;;;;17.60;99.90;;;;;;5055932;28;19951;-63
2021/07/09 14:55:33;;;;;;;;;;;17.40;99.90;;;;;;5049722;28;20042;-63
2021/07/09 14:58:22;;;;;;;;;;;17.20;99.90;;;;;;5044540;28;19924;-63
2021/07/09 15:01:12;;;;;;;;;;;17.10;99.90;;;;;;5033591;28;19932;-63
2021/07/09 15:04:01;;;;;;;;;;;16.90;99.90;;;;;;5049282;28;19924;-63
2021/07/09 15:06:51;;;;;;;;;;;16.90;99.90;;;;;;5048381;28;19924;-64
2021/07/09 15:09:40;;;;;;;;;;;16.80;99.90;;;;;;5050861;28;20222;-63
2021/07/09 15:12:30;;;;;;;;;;;16.90;99.90;;;;;;5045489;28;19929;-63
2021/07/09 15:15:18;;;;;;;;;;;17.00;99.90;;;;;;5038571;28;19933;-63
2021/07/09 15:18:08;;;;;;;;;;;17.20;99.90;;;;;;5051539;28;19928;-62
2021/07/09 15:20:56;;;;;;;;;;;17.40;99.90;;;;;;5047172;28;19932;-62
2021/07/09 15:23:44;;;;;;;;;;;17.50;99.90;;;;;;5052988;28;19925;-62
2021/07/09 15:26:58;;;;;;;;;;;17.50;99.90;;;;;;5060644;28;19933;-63
2021/07/09 15:29:47;;;;;;;;;;;17.30;99.90;;;;;;5050586;28;19941;-63
2021/07/09 15:35:50;;;;;;;;;;;17.00;99.90;;;;;;5065229;28;20214;-63
2021/07/09 15:38:39;;;;;;;;;;;17.00;99.90;;;;;;5031925;28;19941;-63
2021/07/09 15:41:28;;;;;;;;;;;17.00;99.90;;;;;;5040873;28;20077;-64
2021/07/09 15:44:17;;;;;;;;;;;17.00;99.90;;;;;;5053558;28;19936;-63
2021/07/09 15:47:06;;;;;;;;;;;16.90;99.90;;;;;;5051001;28;19924;-62
2021/07/09 15:49:54;;;;;;;;;;;16.90;99.90;;;;;;5054638;28;19947;-63
2021/07/09 15:52:44;;;;;;;;;;;16.90;99.90;;;;;;5049064;28;19982;-62
2021/07/09 15:55:33;;;;;;;;;;;16.80;99.90;;;;;;5045523;28;19973;-62
2021/07/09 15:58:21;;;;;;;;;;;16.80;99.90;;;;;;5062105;28;19929;-62
2021/07/09 16:01:10;;;;;;;;;;;16.90;99.90;;;;;;5050017;28;19925;-62
2021/07/09 16:03:59;;;;;;;;;;;16.90;99.90;;;;;;5072852;28;19932;-62
2021/07/09 16:06:52;;;;;;;;;;;16.90;99.90;;;;;;5045615;28;20344;-62
2021/07/09 16:09:42;;;;;;;;;;;16.90;99.90;;;;;;5056207;28;21179;-63
2021/07/09 16:12:37;;;;;;;;;;;16.90;99.90;;;;;;5059106;28;19932;-63
2021/07/09 16:15:25;;;;;;;;;;;16.80;99.90;;;;;;5044724;28;19933;-62
2021/07/09 16:18:14;;;;;;;;;;;16.80;99.90;;;;;;5066145;28;19966;-63
2021/07/09 16:21:22;;;;;;;;;;;16.80;99.90;;;;;;5066908;28;20070;-63
2021/07/09 16:24:11;;;;;;;;;;;16.90;99.90;;;;;;5061676;28;19935;-63
2021/07/09 16:27:01;;;;;;;;;;;17.20;99.90;;;;;;5052124;28;19971;-63
2021/07/09 16:29:49;;;;;;;;;;;17.70;99.90;;;;;;5062203;28;19925;-63
2021/07/09 16:32:38;;;;;;;;;;;17.60;99.90;;;;;;5060134;28;20367;-64
2021/07/09 16:35:28;;;;;;;;;;;17.80;99.90;;;;;;5062078;28;19924;-63
2021/07/09 16:38:16;;;;;;;;;;;17.70;99.90;;;;;;5060491;28;20342;-62
2021/07/09 16:41:05;;;;;;;;;;;17.70;99.90;;;;;;5058543;28;19925;-63
2021/07/09 16:43:56;;;;;;;;;;;17.60;99.90;;;;;;5049146;28;19929;-63